Latest Weather Observations for Latrobe Valley

IDV60801

Issued at 12:05 pm EST Saturday 19 April 2014 (issued every 30 minutes, with the page automatically refreshed every 10 minutes)

About weather observations | Map of weather stations | Latest weather observations for VIC | Other Formats
Station Details ID: 085280 Name: LATROBE VALLEY AIRPORT Lat: -38.21 Lon: 146.47 Height: 55.7 m
Data from the previous 72 hours. | See also: Recent months at Latrobe Valley
Date/Time
EST
Temp
°C
App
Temp
°C
Dew
Point
Rel
Hum
%
Delta-T
°C
Wind Press
QNH
hPa
Press
MSL
hPa
Rain
since 9 am
mm
Dir
 
Spd
km/h
Gust
km/h
Spd
kts
Gust
kts
19/12:00pm 14.6 10.7 8.8 68 2.9 W 19 24 10 13 1019.0 1019.0 0.0
19/11:30am 13.9 9.4 8.7 71 2.6 WSW 22 28 12 15 1019.4 - 0.0
19/11:00am 14.1 11.0 8.7 70 2.7 W 15 22 8 12 1019.3 - 0.0
19/10:30am 14.4 11.7 8.8 69 2.8 W 13 20 7 11 1019.5 - 0.0
19/10:00am 13.7 12.2 10.5 81 1.7 WSW 9 17 5 9 1019.6 - 0.0
19/09:30am 13.0 10.9 11.1 88 1.0 W 13 19 7 10 1019.8 - 0.0
19/09:06am 11.4 9.5 10.6 95 0.4 NW 11 15 6 8 1019.7 - 0.0
19/09:00am 10.8 8.8 10.0 95 0.4 NW 11 15 6 8 1019.7 1019.7 2.8
19/08:32am 11.3 7.9 9.2 87 1.1 WNW 17 24 9 13 1019.7 - 2.4
19/08:30am 11.4 8.0 9.1 86 1.2 WNW 17 22 9 12 1019.6 - 2.2
19/08:00am 10.8 8.0 8.7 87 1.0 WNW 13 15 7 8 1019.3 - 2.2
19/07:30am 10.2 7.8 8.6 90 0.8 WSW 11 13 6 7 1019.1 - 2.2
19/07:00am 10.0 7.5 8.4 90 0.8 WSW 11 17 6 9 1018.7 - 2.2
19/06:30am 9.8 7.4 8.6 92 0.6 W 11 17 6 9 1018.5 - 2.2
19/06:00am 9.5 5.9 8.4 93 0.5 WNW 17 22 9 12 1018.2 1018.2 2.2
19/05:30am 10.1 7.1 9.2 94 0.4 WNW 15 19 8 10 1017.9 - 2.2
19/05:00am 10.2 8.0 9.3 94 0.4 W 11 13 6 7 1017.9 - 2.2
19/04:30am 10.1 7.4 8.9 92 0.6 W 13 19 7 10 1017.9 - 2.2
19/04:03am 10.6 7.3 9.4 92 0.6 W 17 22 9 12 1017.8 - 2.2
19/04:00am 10.5 7.2 9.4 93 0.6 W 17 20 9 11 1017.8 - 2.2
19/03:48am 10.4 6.7 9.5 94 0.5 W 19 24 10 13 1017.8 - 2.2
19/03:30am 10.0 7.0 9.1 94 0.4 WNW 15 19 8 10 1017.8 - 2.2
19/03:15am 10.5 6.8 9.4 93 0.6 W 19 22 10 12 1017.8 - 2.2
19/03:00am 10.8 6.9 9.4 91 0.7 W 20 26 11 14 1017.9 1017.9 2.2
19/02:58am 10.7 6.4 9.3 91 0.7 W 22 26 12 14 1018.0 - 2.2
19/02:30am 10.8 6.5 9.2 90 0.8 W 22 32 12 17 1017.9 - 2.2
19/02:00am 10.6 6.8 9.2 91 0.7 W 19 24 10 13 1018.0 - 2.2
19/01:30am 10.6 7.1 8.9 89 0.8 W 17 22 9 12 1018.3 - 2.2
19/01:00am 11.1 7.7 9.0 87 1.0 W 17 22 9 12 1018.5 - 2.2
19/12:30am 10.3 8.4 9.2 93 0.5 WSW 9 11 5 6 1018.5 - 2.2
19/12:00am 10.3 7.6 8.9 91 0.7 WNW 13 17 7 9 1018.5 1018.5 2.2
 
Date/Time
EST
Temp
°C
App
Temp
°C
Dew
Point
Rel
Hum
%
Delta-T
°C
Wind Press
QNH
hPa
Press
MSL
hPa
Rain
since 9 am
mm
Dir
 
Spd
km/h
Gust
km/h
Spd
kts
Gust
kts
18/11:30pm 10.3 7.5 8.6 89 0.8 W 13 17 7 9 1018.7 - 2.2
18/11:00pm 10.8 6.8 8.4 85 1.2 WNW 19 24 10 13 1018.9 - 2.2
18/10:30pm 10.0 7.4 7.9 87 1.0 SW 11 15 6 8 1018.9 - 2.2
18/10:00pm 9.8 7.9 7.7 87 1.0 SSW 7 11 4 6 1018.9 - 2.2
18/09:30pm 10.3 7.7 7.9 85 1.2 W 11 15 6 8 1018.7 - 2.0
18/09:00pm 11.1 8.0 9.0 87 1.0 W 15 20 8 11 1018.7 1018.7 2.0
18/08:30pm 12.0 8.1 7.1 72 2.4 W 17 22 9 12 1018.5 - 2.0
18/08:00pm 11.6 7.3 7.1 74 2.2 W 19 22 10 12 1018.2 - 2.0
18/07:30pm 12.0 7.7 7.1 72 2.4 W 19 22 10 12 1018.0 - 2.0
18/07:00pm 12.5 8.1 6.5 67 2.9 WNW 19 24 10 13 1017.9 - 2.0
18/06:30pm 12.9 8.9 6.7 66 3.0 W 17 22 9 12 1017.6 - 2.0
18/06:00pm 13.1 9.2 7.3 68 2.8 W 17 24 9 13 1017.1 1017.1 1.8
18/05:30pm 14.2 8.6 7.0 62 3.5 WSW 26 37 14 20 1016.7 - 1.8
18/05:00pm 14.9 9.3 7.0 59 3.9 WSW 26 35 14 19 1016.0 - 1.8
18/04:30pm 15.9 8.1 8.2 60 3.9 WSW 39 46 21 25 1015.8 - 1.8
18/04:29pm 15.9 8.0 7.9 59 4.0 WSW 39 46 21 25 1015.7 - 1.8
18/04:00pm 15.8 12.4 11.2 74 2.5 W 20 30 11 16 1015.6 - 1.8
18/03:30pm 16.0 10.1 10.5 70 2.9 W 32 48 17 26 1015.3 - 1.8
18/03:00pm 15.8 9.4 8.5 62 3.7 WSW 32 46 17 25 1015.1 1015.1 1.8
18/02:30pm 15.5 10.0 10.5 72 2.6 W 30 41 16 22 1014.8 - 1.8
18/02:00pm 14.8 8.8 10.2 74 2.4 W 32 46 17 25 1014.5 - 1.8
18/01:44pm 14.5 8.3 10.1 75 2.3 WSW 33 52 18 28 1014.4 - 1.8
18/01:30pm 13.9 7.0 10.3 79 1.9 WSW 37 52 20 28 1014.4 - 1.8
18/01:02pm 14.2 9.4 12.9 92 0.7 WSW 30 37 16 20 1014.0 - 1.8
18/01:00pm 14.2 9.9 13.1 93 0.6 WSW 28 37 15 20 1014.2 - 1.8
18/12:45pm 14.1 9.8 13.3 95 0.4 WSW 28 37 15 20 1014.2 - 1.8
18/12:39pm 13.8 10.2 13.0 95 0.4 WSW 24 37 13 20 1014.0 - 1.6
18/12:30pm 14.0 9.3 13.2 95 0.4 WSW 30 39 16 21 1013.9 - 1.4
18/12:19pm 14.4 7.3 12.1 86 1.2 SW 41 46 22 25 1013.8 - 0.6
18/12:00pm 16.7 10.9 11.6 72 2.8 W 33 46 18 25 1013.3 1013.3 0.0
18/11:30am 18.1 14.3 12.5 70 3.1 W 24 35 13 19 1013.5 - 0.0
18/11:15am 17.2 13.2 11.9 71 2.9 W 24 32 13 17 1013.6 - 0.0
18/11:00am 16.6 12.9 11.5 72 2.8 W 22 30 12 16 1013.8 - 0.0
18/10:54am 17.5 13.9 11.8 69 3.1 W 22 30 12 16 1013.7 - 0.0
18/10:30am 17.2 14.6 10.8 66 3.4 W 15 22 8 12 1013.6 - 0.0
18/10:25am 17.5 15.0 11.1 66 3.5 W 15 20 8 11 1013.5 - 0.0
18/10:08am 17.7 15.9 11.0 65 3.6 WSW 11 22 6 12 1013.5 - 0.0
18/10:00am 17.4 16.3 12.1 71 2.9 SSW 9 13 5 7 1013.5 - 0.0
18/09:30am 15.1 15.6 14.0 93 0.6 SE 4 9 2 5 1013.7 - 0.0
18/09:00am 13.4 14.5 13.4 100 0.0 CALM 0 0 0 0 1014.5 1014.5 0.0
18/08:42am 11.8 12.4 11.8 100 0.0 CALM 0 0 0 0 1014.5 - 0.0
18/08:30am 11.5 12.0 11.5 100 0.0 CALM 0 0 0 0 1014.8 - 0.0
18/08:00am 10.0 10.1 10.0 100 0.0 CALM 0 0 0 0 1015.1 - 0.0
18/07:58am 10.1 10.2 10.1 100 0.0 CALM 0 0 0 0 1015.1 - 0.0
18/07:55am 10.2 10.3 10.2 100 0.0 CALM 0 0 0 0 1015.0 - 0.0
18/07:30am 9.4 8.0 9.4 100 0.0 SSE 7 9 4 5 1015.1 - 0.0
18/07:21am 9.0 8.0 9.0 100 0.0 SE 4 9 2 5 1015.1 - 0.0
18/07:00am 8.2 7.0 8.2 100 0.0 ESE 4 7 2 4 1015.0 - 0.0
18/06:30am 8.5 8.2 8.5 100 0.0 CALM 0 0 0 0 1015.0 - 0.0
18/06:00am 8.2 7.4 8.2 100 0.0 WSW 2 6 1 3 1015.1 1015.1 0.0
18/05:30am 8.0 6.4 8.0 100 0.0 WSW 6 9 3 5 1015.2 - 0.0
18/05:00am 7.5 6.2 7.5 100 0.0 SW 4 6 2 3 1015.0 - 0.0
18/04:42am 6.9 6.2 6.8 99 0.0 CALM 0 0 0 0 1015.1 - 0.0
18/04:30am 7.8 7.3 7.8 100 0.0 CALM 0 0 0 0 1015.2 - 0.0
18/04:00am 8.0 7.5 8.0 100 0.0 CALM 0 0 0 0 1015.2 - 0.0
18/03:30am 7.4 6.8 7.3 99 0.0 CALM 0 0 0 0 1015.2 - 0.0
18/03:00am 8.6 8.3 8.5 99 0.0 CALM 0 0 0 0 1015.5 1015.5 0.0
18/02:57am 8.4 8.0 8.3 99 0.0 CALM 0 0 0 0 1015.6 - 0.0
18/02:30am 8.3 7.9 8.2 99 0.0 CALM 0 0 0 0 1016.0 - 0.0
18/02:23am 8.0 7.5 7.9 99 0.0 CALM 0 0 0 0 1016.0 - 0.0
18/02:00am 8.6 8.3 8.5 99 0.0 CALM 0 0 0 0 1016.3 - 0.0
18/01:41am 8.8 8.5 8.7 99 0.0 CALM 0 0 0 0 1016.6 - 0.0
18/01:30am 9.4 9.3 9.3 99 0.0 CALM 0 0 0 0 1016.6 - 0.0
18/01:29am 9.4 9.3 9.3 99 0.0 CALM 0 0 0 0 1016.6 - 0.0
18/01:00am 9.1 8.9 9.0 99 0.0 CALM 0 0 0 0 1017.0 - 0.0
18/12:57am 9.3 9.1 9.2 99 0.0 CALM 0 0 0 0 1017.0 - 0.0
18/12:30am 10.3 10.4 10.1 99 0.1 CALM 0 0 0 0 1017.2 - 0.0
18/12:25am 10.0 10.0 9.9 99 0.1 CALM 0 0 0 0 1017.2 - 0.0
18/12:00am 9.9 9.9 9.8 99 0.1 CALM 0 0 0 0 1017.5 1017.5 0.0
 
Date/Time
EST
Temp
°C
App
Temp
°C
Dew
Point
Rel
Hum
%
Delta-T
°C
Wind Press
QNH
hPa
Press
MSL
hPa
Rain
since 9 am
mm
Dir
 
Spd
km/h
Gust
km/h
Spd
kts
Gust
kts
17/11:30pm 9.4 9.3 9.3 99 0.0 CALM 0 0 0 0 1017.9 - 0.0
17/11:00pm 11.2 10.8 11.0 99 0.1 N 4 7 2 4 1018.3 - 0.0
17/10:50pm 11.2 10.4 10.9 98 0.2 NE 6 7 3 4 1018.4 - 0.0
17/10:30pm 12.2 12.0 11.7 97 0.3 ENE 4 7 2 4 1018.5 - 0.0
17/10:00pm 12.8 12.3 12.2 96 0.3 E 6 7 3 4 1018.8 - 0.0
17/09:30pm 13.2 12.6 12.3 94 0.5 NE 7 7 4 4 1018.7 - 0.0
17/09:00pm 13.2 12.7 11.9 92 0.7 NE 6 7 3 4 1018.6 1018.6 0.0
17/08:30pm 13.8 12.9 11.3 85 1.3 ENE 7 9 4 5 1018.7 - 0.0
17/08:00pm 15.3 14.2 12.1 81 1.7 E 9 13 5 7 1018.7 - 0.0
17/07:30pm 15.8 14.6 11.6 76 2.3 E 9 15 5 8 1018.6 - 0.0
17/07:00pm 16.4 15.3 11.8 74 2.5 E 9 9 5 5 1018.6 - 0.0
17/06:30pm 16.9 16.1 11.6 71 2.9 ENE 7 9 4 5 1018.5 - 0.0
17/06:00pm 18.0 17.2 11.8 67 3.4 ENE 7 11 4 6 1018.4 1018.4 0.0
17/05:30pm 18.3 17.1 11.6 65 3.7 NNE 9 11 5 6 1018.3 - 0.0
17/05:00pm 19.8 19.2 12.3 62 4.2 NNE 7 9 4 5 1018.1 - 0.0
17/04:52pm 20.0 19.2 11.7 59 4.6 NNE 7 9 4 5 1018.1 - 0.0
17/04:30pm 20.7 20.7 11.1 54 5.3 NNW 2 7 1 4 1018.2 - 0.0
17/04:09pm 21.1 20.6 10.6 51 5.7 NNW 4 7 2 4 1018.3 - 0.0
17/04:00pm 20.8 19.9 10.6 52 5.6 N 6 7 3 4 1018.3 - 0.0
17/03:30pm 20.1 19.1 11.1 56 4.9 NE 7 11 4 6 1018.5 - 0.0
17/03:00pm 20.7 19.4 11.1 54 5.3 ENE 9 13 5 7 1018.7 1018.7 0.0
17/02:30pm 20.1 19.4 10.2 53 5.3 SSE 4 6 2 3 1019.0 - 0.0
17/02:00pm 20.5 19.6 10.6 53 5.4 NNE 6 15 3 8 1019.2 - 0.0
17/01:30pm 21.2 19.9 11.2 53 5.5 NNE 9 15 5 8 1019.3 - 0.0
17/01:00pm 20.9 20.0 10.7 52 5.6 NE 6 11 3 6 1019.8 - 0.0
17/12:30pm 20.5 19.5 10.9 54 5.3 N 7 11 4 6 1020.1 - 0.0
17/12:00pm 20.0 19.4 11.7 59 4.6 NNE 6 11 3 6 1020.5 1020.5 0.0
17/11:30am 19.5 19.5 12.5 64 3.9 NNE 4 9 2 5 1020.9 - 0.0
17/11:00am 18.5 18.6 12.7 69 3.3 NNE 4 9 2 5 1021.2 - 0.0
17/10:30am 17.0 16.7 11.3 69 3.1 NNE 4 7 2 4 1021.3 - 0.0
17/10:00am 14.9 15.8 12.9 88 1.1 CALM 0 6 0 3 1021.4 - 0.0
17/09:30am 13.0 13.2 13.0 100 0.0 SSW 4 7 2 4 1021.6 - 0.0
17/09:00am 11.8 12.0 11.8 100 0.0 SSW 2 6 1 3 1021.6 1021.6 0.0
17/08:56am 11.6 11.7 11.6 100 0.0 SSW 2 6 1 3 1021.7 - 0.0
17/08:54am 11.4 11.8 11.4 100 0.0 CALM 0 6 0 3 1021.7 - 0.0
17/08:30am 10.3 9.7 10.3 100 0.0 SW 4 7 2 4 1021.7 - 0.0
17/08:00am 9.0 8.8 9.0 100 0.0 CALM 0 0 0 0 1021.5 - 0.0
17/07:30am 7.9 7.4 7.9 100 0.0 CALM 0 0 0 0 1021.3 - 0.0
17/07:00am 6.9 6.2 6.8 99 0.0 CALM 0 2 0 1 1021.0 - 0.0
17/06:30am 6.7 5.5 6.6 99 0.0 SW 2 6 1 3 1020.7 - 0.0
17/06:02am 6.4 5.6 6.3 99 0.0 CALM 0 0 0 0 1020.6 - 0.0
17/06:00am 6.2 5.3 6.1 99 0.0 CALM 0 0 0 0 1020.5 1020.5 0.0
17/05:57am 6.1 5.2 6.0 99 0.0 CALM 0 0 0 0 1020.5 - 0.0
17/05:30am 7.3 6.7 7.2 99 0.0 CALM 0 0 0 0 1020.3 - 0.0
17/05:00am 7.6 7.0 7.5 99 0.0 CALM 0 0 0 0 1020.2 - 0.0
17/04:30am 7.9 7.4 7.8 99 0.0 CALM 0 0 0 0 1020.1 - 0.0
17/04:00am 7.1 6.4 7.0 99 0.0 CALM 0 0 0 0 1020.1 - 0.0
17/03:30am 7.2 6.5 7.1 99 0.0 CALM 0 0 0 0 1019.9 - 0.0
17/03:00am 8.2 7.8 8.1 99 0.0 CALM 0 6 0 3 1019.7 1019.7 0.0
17/02:30am 8.0 6.8 7.9 99 0.0 WSW 4 6 2 3 1019.8 - 0.0
17/02:26am 7.9 6.6 7.8 99 0.0 WSW 4 6 2 3 1019.8 - 0.0
17/02:08am 7.6 7.0 7.5 99 0.0 CALM 0 0 0 0 1019.9 - 0.0
17/02:00am 7.8 7.2 7.5 98 0.1 CALM 0 6 0 3 1019.9 - 0.0
17/01:30am 9.2 7.7 9.1 99 0.0 NE 7 9 4 5 1020.1 - 0.0
17/01:00am 8.5 8.1 8.2 98 0.1 CALM 0 0 0 0 1020.1 - 0.0
17/12:30am 9.2 7.8 8.7 97 0.2 NE 6 7 3 4 1020.1 - 0.0
17/12:00am 9.6 8.6 8.8 95 0.4 E 4 7 2 4 1020.2 1020.2 0.0
 
Date/Time
EST
Temp
°C
App
Temp
°C
Dew
Point
Rel
Hum
%
Delta-T
°C
Wind Press
QNH
hPa
Press
MSL
hPa
Rain
since 9 am
mm
Dir
 
Spd
km/h
Gust
km/h
Spd
kts
Gust
kts
16/11:30pm 10.2 10.0 9.1 93 0.5 CALM 0 0 0 0 1020.6 - 0.0
16/11:00pm 11.4 10.2 9.7 89 0.9 SE 6 9 3 5 1020.8 - 0.0
16/10:30pm 11.4 9.9 9.3 87 1.1 ESE 7 9 4 5 1020.7 - 0.0
16/10:00pm 11.8 10.4 9.5 86 1.2 ESE 7 9 4 5 1020.9 - 0.0
16/09:30pm 12.0 10.6 9.7 86 1.2 ENE 7 11 4 6 1020.8 - 0.0
16/09:00pm 12.1 10.9 9.7 85 1.2 ENE 6 9 3 5 1021.0 1021.0 0.0
16/08:30pm 12.4 11.0 9.4 82 1.5 ENE 7 9 4 5 1020.8 - 0.0
16/08:00pm 13.2 11.7 9.3 77 2.0 ENE 7 11 4 6 1020.6 - 0.0
16/07:30pm 13.9 12.1 9.5 75 2.3 ENE 9 13 5 7 1020.4 - 0.0
16/07:00pm 14.2 12.4 9.6 74 2.4 ENE 9 13 5 7 1020.2 - 0.0
16/06:30pm 15.0 13.0 10.0 72 2.6 ENE 11 17 6 9 1019.7 - 0.0
16/06:00pm 16.0 14.0 10.1 68 3.1 ENE 11 17 6 9 1019.4 1019.4 0.0
16/05:30pm 16.6 15.4 10.2 66 3.4 NE 7 7 4 4 1019.1 - 0.0
16/05:00pm 16.7 15.1 10.1 65 3.5 NNE 9 11 5 6 1018.9 - 0.0
16/04:30pm 18.7 16.9 10.8 60 4.3 NNE 11 15 6 8 1018.7 - 0.0
16/04:00pm 19.4 17.6 10.7 57 4.7 NNE 11 13 6 7 1018.7 - 0.0
16/03:30pm 19.8 18.2 10.2 54 5.2 NE 9 19 5 10 1018.8 - 0.0
16/03:00pm 20.0 18.7 10.1 53 5.3 E 7 13 4 7 1019.0 1019.0 0.0
16/02:30pm 19.4 17.0 9.9 54 5.1 NE 13 17 7 9 1019.1 - 0.0
16/02:00pm 19.6 16.9 10.3 55 5.0 NE 15 20 8 11 1019.1 - 0.0
16/01:30pm 19.0 16.1 9.8 55 4.9 ENE 15 22 8 12 1019.3 - 0.0
16/01:00pm 19.2 16.4 9.9 55 5.0 ENE 15 22 8 12 1019.6 - 0.0
16/12:30pm 18.5 14.8 10.1 58 4.5 NE 20 24 11 13 1019.9 - 0.0

Other Formats:

Comma delimited format used in spreadsheet applications
http://www.bom.gov.au/fwo/IDV60801/IDV60801.94891.axf

JavaScript Object Notation format (JSON) in row-major order
http://www.bom.gov.au/fwo/IDV60801/IDV60801.94891.json